Assumption, Illinois
Current Conditions -  °F | °C
As of 8:15 AM on Thursday 27 Nov 2014 (Local Time) from KTAZ Reporting Station
Haze Haze  
Wind Chill: -8°   Ceiling: 2700
Heat Index: -3°   Visibility: 5mi
Dew Point: -5°   Wind: 9mph
Humidity: 86%   Direction: 300°WNW
Pressure: 30.42"   Gusts: NA
Location:  39.52°N, 89.05°W
Report Text: KTAZ 271415Z AUTO 30008KT 5SM BR OVC027 M03/M05 A3042 RMK AO2
Loading
Personal Weather Stations






























Interactive Weather Map New forecast layout! Learn more

10-Day Weather Forecast

Advertisements
Track Severe Weather on mobile